Time;durP1;ratioP1;P1;durP2;ratioP2;P2;SDS_P1;SDS_P2;PMS_P1;PMS_P2;Temp;Humidity;BMP_temperature;BMP_pressure;BME280_temperature;BME280_humidity;BME280_pressure;Samples;Min_cycle;Max_cycle;Signal;HPM_P1;HPM_P2
2022/03/01 00:01:27;;;;;;;54.33;24.10;;;1.00;99.90;;;;;;5095943;28;20039;-71
2022/03/01 00:03:53;;;;;;;51.10;22.77;;;1.10;99.90;;;;;;5095946;28;20028;-71
2022/03/01 00:06:18;;;;;;;47.22;21.60;;;1.10;99.90;;;;;;5095623;28;20028;-71
2022/03/01 00:08:44;;;;;;;46.25;21.95;;;1.10;99.90;;;;;;5095677;28;20020;-71
2022/03/01 00:11:09;;;;;;;49.70;22.10;;;1.10;99.90;;;;;;5096061;28;20031;-71
2022/03/01 00:13:36;;;;;;;48.17;22.52;;;1.10;99.90;;;;;;5095415;28;20034;-71
2022/03/01 00:16:02;;;;;;;50.47;21.98;;;1.20;99.90;;;;;;5095493;28;20032;-71
2022/03/01 00:18:28;;;;;;;52.53;23.10;;;1.20;99.90;;;;;;5095317;28;20465;-71
2022/03/01 00:20:54;;;;;;;53.90;22.50;;;1.20;99.90;;;;;;5095345;28;20077;-71
2022/03/01 00:23:19;;;;;;;50.60;23.70;;;1.30;99.90;;;;;;5095713;28;20031;-71
2022/03/01 00:25:45;;;;;;;54.50;22.85;;;1.30;99.90;;;;;;5095009;28;20039;-71
2022/03/01 00:28:11;;;;;;;54.75;24.80;;;1.20;99.90;;;;;;5095081;28;20103;-71
2022/03/01 00:30:36;;;;;;;55.63;22.85;;;1.30;99.90;;;;;;5095108;28;20024;-71
2022/03/01 00:33:02;;;;;;;52.97;22.92;;;1.30;99.90;;;;;;5093909;28;20479;-71
2022/03/01 00:35:27;;;;;;;51.45;24.77;;;1.30;99.90;;;;;;5094913;28;20031;-71
2022/03/01 00:37:53;;;;;;;54.58;24.83;;;1.30;99.90;;;;;;5094948;28;20020;-71
2022/03/01 00:40:19;;;;;;;53.67;23.55;;;1.30;99.90;;;;;;5094850;28;20027;-71
2022/03/01 00:42:44;;;;;;;50.88;23.98;;;1.20;99.90;;;;;;5095466;28;20111;-71
2022/03/01 00:45:10;;;;;;;51.08;23.90;;;1.10;99.90;;;;;;5094796;28;20032;-71
2022/03/01 00:47:35;;;;;;;47.65;22.48;;;1.20;99.90;;;;;;5094852;28;20060;-71
2022/03/01 00:50:01;;;;;;;49.60;23.27;;;1.20;99.90;;;;;;5094727;28;20035;-71
2022/03/01 00:52:27;;;;;;;51.75;22.75;;;1.20;99.90;;;;;;5094708;28;20028;-71
2022/03/01 00:54:52;;;;;;;50.17;24.55;;;1.10;99.90;;;;;;5094536;28;20016;-71
2022/03/01 00:57:18;;;;;;;61.45;24.40;;;1.10;99.90;;;;;;5094368;28;20050;-71
2022/03/01 00:59:43;;;;;;;54.88;24.10;;;1.10;99.90;;;;;;5094566;28;20074;-70
2022/03/01 01:02:09;;;;;;;52.15;23.88;;;1.20;99.90;;;;;;5094497;28;20024;-71
2022/03/01 01:04:35;;;;;;;52.47;24.15;;;1.10;99.90;;;;;;5094415;28;20032;-71
2022/03/01 01:07:00;;;;;;;48.60;21.80;;;1.10;99.90;;;;;;5094419;28;20035;-71
2022/03/01 01:09:26;;;;;;;52.78;23.42;;;0.90;99.90;;;;;;5094559;28;20114;-71
2022/03/01 01:11:51;;;;;;;53.83;24.80;;;0.90;99.90;;;;;;5094644;28;20020;-71
2022/03/01 01:14:17;;;;;;;61.33;25.35;;;1.00;99.90;;;;;;5094285;28;20073;-71
2022/03/01 01:16:42;;;;;;;60.75;24.27;;;0.90;99.90;;;;;;5094267;28;20024;-71
2022/03/01 01:19:08;;;;;;;52.10;24.40;;;0.90;99.90;;;;;;5094263;28;20024;-71
2022/03/01 01:24:18;;;;;;;55.05;24.50;;;0.80;99.90;;;;;;5094315;28;20537;-71
2022/03/01 01:26:43;;;;;;;58.97;24.33;;;0.60;99.90;;;;;;5093862;28;20043;-71
2022/03/01 01:29:09;;;;;;;56.20;22.83;;;0.60;99.90;;;;;;5094564;28;20032;-71
2022/03/01 01:31:34;;;;;;;52.53;23.48;;;0.70;99.90;;;;;;5094379;28;20016;-71
2022/03/01 01:34:00;;;;;;;60.25;24.67;;;0.70;99.90;;;;;;5093994;28;20495;-71
2022/03/01 01:36:26;;;;;;;60.17;24.20;;;0.60;99.90;;;;;;5094242;28;20460;-71
2022/03/01 01:38:55;;;;;;;52.80;23.45;;;0.60;99.90;;;;;;5093972;28;20097;-71
2022/03/01 01:41:20;;;;;;;54.22;24.42;;;0.60;99.90;;;;;;5093774;28;20035;-71
2022/03/01 01:43:46;;;;;;;55.92;24.92;;;0.50;99.90;;;;;;5093856;28;20028;-71
2022/03/01 01:46:11;;;;;;;59.55;24.85;;;0.50;99.90;;;;;;5093793;28;20030;-71
2022/03/01 01:48:37;;;;;;;55.33;23.23;;;0.60;99.90;;;;;;5094001;28;20111;-71
2022/03/01 01:51:03;;;;;;;56.67;24.23;;;0.60;99.90;;;;;;5093736;28;20020;-71
2022/03/01 01:53:28;;;;;;;55.28;25.20;;;0.60;99.90;;;;;;5093815;28;20020;-71
2022/03/01 01:55:54;;;;;;;58.92;25.35;;;0.50;99.90;;;;;;5093991;28;20456;-71
2022/03/01 01:58:19;;;;;;;59.17;25.65;;;0.50;99.90;;;;;;5093661;28;20024;-71
2022/03/01 02:00:45;;;;;;;50.78;23.45;;;0.40;99.90;;;;;;5094294;28;20035;-71
2022/03/01 02:03:11;;;;;;;59.47;25.00;;;0.40;99.90;;;;;;5093718;28;20061;-71
2022/03/01 02:05:36;;;;;;;55.78;25.25;;;0.30;99.90;;;;;;5094335;28;20032;-71
2022/03/01 02:08:02;;;;;;;64.38;25.27;;;0.20;99.90;;;;;;5093622;28;20115;-71
2022/03/01 02:10:28;;;;;;;63.50;24.65;;;0.10;99.90;;;;;;5097840;28;20460;-71
2022/03/01 02:12:56;;;;;;;46.45;22.88;;;0.10;99.90;;;;;;5098506;28;20020;-71
2022/03/01 02:15:23;;;;;;;56.08;24.08;;;-0.10;99.90;;;;;;5097630;28;20107;-71
2022/03/01 02:17:49;;;;;;;48.70;21.67;;;-0.10;99.90;;;;;;5098086;28;20024;-71
2022/03/01 02:20:16;;;;;;;58.25;24.52;;;-0.20;99.90;;;;;;5097932;28;20032;-71
2022/03/01 02:22:42;;;;;;;48.80;22.98;;;-0.20;99.90;;;;;;5097941;28;20483;-71
2022/03/01 02:25:08;;;;;;;54.05;24.60;;;-0.40;99.90;;;;;;5097730;28;20032;-71
2022/03/01 02:27:34;;;;;;;50.88;24.55;;;-0.40;99.90;;;;;;5097400;28;20034;-71
2022/03/01 02:30:00;;;;;;;54.55;24.40;;;-0.50;99.90;;;;;;5097682;28;20102;-71
2022/03/01 02:32:26;;;;;;;50.42;23.75;;;-0.60;99.90;;;;;;5097678;28;20383;-71
2022/03/01 02:34:52;;;;;;;60.95;26.08;;;-0.60;99.90;;;;;;5097414;28;20030;-71
2022/03/01 02:37:17;;;;;;;50.13;24.30;;;-0.60;99.90;;;;;;5097688;28;20070;-71
2022/03/01 02:39:43;;;;;;;57.95;24.05;;;-0.60;99.90;;;;;;5097324;28;20072;-71
2022/03/01 02:42:09;;;;;;;53.22;24.92;;;-0.70;99.90;;;;;;5097320;28;20464;-71
2022/03/01 02:44:34;;;;;;;57.00;26.15;;;-0.80;99.90;;;;;;5097374;28;20020;-71
2022/03/01 02:47:00;;;;;;;54.08;23.60;;;-0.80;99.90;;;;;;5097113;28;20026;-71
2022/03/01 02:49:26;;;;;;;55.38;23.75;;;-0.80;99.90;;;;;;5097020;28;20024;-71
2022/03/01 02:51:51;;;;;;;56.58;24.35;;;-0.80;99.90;;;;;;5097105;28;20020;-71
2022/03/01 02:54:17;;;;;;;59.75;25.83;;;-0.90;99.90;;;;;;5097063;28;20024;-71
2022/03/01 02:56:42;;;;;;;58.75;24.40;;;-0.90;99.90;;;;;;5096831;28;20447;-71
2022/03/01 02:59:08;;;;;;;57.15;24.50;;;-0.90;99.90;;;;;;5096965;28;20097;-71
2022/03/01 03:01:34;;;;;;;52.45;23.73;;;-0.90;99.90;;;;;;5096829;28;20032;-71
2022/03/01 03:04:00;;;;;;;65.43;25.75;;;-1.00;99.90;;;;;;5096924;28;20035;-71
2022/03/01 03:06:25;;;;;;;51.58;24.27;;;-1.00;99.90;;;;;;5097262;28;20028;-71
2022/03/01 03:08:51;;;;;;;58.50;25.55;;;-1.00;99.90;;;;;;5096571;28;20023;-71
2022/03/01 03:11:17;;;;;;;65.57;28.10;;;-0.90;99.90;;;;;;5096696;28;20061;-71
2022/03/01 03:13:43;;;;;;;66.07;28.02;;;-0.90;99.90;;;;;;5096584;28;20361;-71
2022/03/01 03:16:10;;;;;;;60.67;26.25;;;-0.90;99.90;;;;;;5096587;28;20061;-71
2022/03/01 03:18:36;;;;;;;63.35;26.55;;;-0.90;99.90;;;;;;5096582;28;20020;-71
2022/03/01 03:21:02;;;;;;;58.75;25.95;;;-0.80;99.90;;;;;;5096735;28;20012;-71
2022/03/01 03:23:28;;;;;;;65.30;28.02;;;-0.90;99.90;;;;;;5095144;28;20027;-71
2022/03/01 03:25:54;;;;;;;66.65;27.40;;;-0.90;99.90;;;;;;5096119;28;20032;-71
2022/03/01 03:28:20;;;;;;;62.30;26.90;;;-0.90;99.90;;;;;;5096297;28;20070;-71
2022/03/01 03:30:45;;;;;;;62.08;26.70;;;-0.90;99.90;;;;;;5096245;28;20027;-71
2022/03/01 03:33:11;;;;;;;64.72;27.13;;;-0.80;99.90;;;;;;5096197;28;20447;-71
2022/03/01 03:35:36;;;;;;;63.20;29.38;;;-0.80;99.90;;;;;;5096118;28;20023;-71
2022/03/01 03:38:03;;;;;;;70.63;28.35;;;-0.80;99.90;;;;;;5096068;28;20085;-71
2022/03/01 03:40:29;;;;;;;59.53;26.17;;;-0.90;99.90;;;;;;5096062;28;20031;-71
2022/03/01 03:42:54;;;;;;;61.47;27.08;;;-0.80;99.90;;;;;;5096048;28;20082;-71
2022/03/01 03:45:20;;;;;;;69.28;27.80;;;-0.80;99.90;;;;;;5095908;28;20067;-71
2022/03/01 03:47:45;;;;;;;57.25;27.92;;;-0.90;99.90;;;;;;5095914;28;20032;-71
2022/03/01 03:50:11;;;;;;;63.30;26.55;;;-0.80;99.90;;;;;;5095767;28;20085;-71
2022/03/01 03:52:38;;;;;;;61.92;27.60;;;-0.80;99.90;;;;;;5096175;28;20058;-71
2022/03/01 03:55:05;;;;;;;55.30;26.58;;;-0.80;99.90;;;;;;5095695;28;20016;-71
2022/03/01 03:57:35;;;;;;;61.40;25.63;;;-0.80;99.90;;;;;;5095858;28;20039;-71
2022/03/01 04:00:03;;;;;;;67.47;26.60;;;-0.80;99.90;;;;;;5095693;28;20107;-71
2022/03/01 04:02:28;;;;;;;53.80;25.13;;;-0.70;99.90;;;;;;5095893;28;20100;-71
2022/03/01 04:04:54;;;;;;;53.42;24.52;;;-0.70;99.90;;;;;;5095581;28;20035;-71
2022/03/01 04:07:19;;;;;;;64.43;25.83;;;-0.70;99.90;;;;;;5095819;28;20073;-71
2022/03/01 04:09:45;;;;;;;54.90;24.30;;;-0.70;99.90;;;;;;5095643;28;20067;-71
2022/03/01 04:12:10;;;;;;;63.33;24.10;;;-0.70;99.90;;;;;;5095560;28;20028;-71
2022/03/01 04:14:36;;;;;;;63.20;24.90;;;-0.70;99.90;;;;;;5095356;28;20365;-71
2022/03/01 04:17:03;;;;;;;59.58;26.63;;;-0.60;99.90;;;;;;5095407;28;20388;-71
2022/03/01 04:19:29;;;;;;;54.17;24.27;;;-0.60;99.90;;;;;;5095266;28;20093;-71
2022/03/01 04:21:55;;;;;;;56.25;23.30;;;-0.60;99.90;;;;;;5095581;28;20107;-71
2022/03/01 04:24:20;;;;;;;61.45;24.83;;;-0.60;99.90;;;;;;5095464;28;20521;-71
2022/03/01 04:26:46;;;;;;;54.05;22.80;;;-0.50;99.90;;;;;;5094918;28;20031;-70
2022/03/01 04:29:11;;;;;;;56.22;23.00;;;-0.60;99.90;;;;;;5095067;28;20028;-70
2022/03/01 04:31:37;;;;;;;51.20;23.92;;;-0.50;99.90;;;;;;5094546;28;20043;-70
2022/03/01 04:34:03;;;;;;;53.58;22.08;;;-0.50;99.90;;;;;;5095101;28;20028;-71
2022/03/01 04:36:28;;;;;;;54.00;24.77;;;-0.50;99.90;;;;;;5095047;28;20044;-71
2022/03/01 04:38:55;;;;;;;48.17;21.38;;;-0.40;99.90;;;;;;5095022;28;20533;-71
2022/03/01 04:41:20;;;;;;;62.55;24.88;;;-0.50;99.90;;;;;;5095208;28;20100;-71
2022/03/01 04:43:46;;;;;;;55.35;23.30;;;-0.50;99.90;;;;;;5095414;28;20062;-71
2022/03/01 04:46:11;;;;;;;50.92;22.17;;;-0.40;99.90;;;;;;5094750;28;20095;-70
2022/03/01 04:48:37;;;;;;;54.75;23.52;;;-0.40;99.90;;;;;;5095033;28;20016;-71
2022/03/01 04:51:04;;;;;;;49.53;21.20;;;-0.40;99.90;;;;;;5094836;28;20028;-71
2022/03/01 04:53:30;;;;;;;60.60;23.58;;;-0.40;99.90;;;;;;5094951;28;20103;-71
2022/03/01 04:55:56;;;;;;;52.20;22.42;;;-0.40;99.90;;;;;;5094527;28;20059;-71
2022/03/01 04:58:21;;;;;;;52.78;22.85;;;-0.30;99.90;;;;;;5094571;28;20048;-71
2022/03/01 05:00:47;;;;;;;55.42;22.52;;;-0.30;99.90;;;;;;5094508;28;20024;-71
2022/03/01 05:03:12;;;;;;;48.28;21.80;;;-0.30;99.90;;;;;;5094751;28;20027;-71
2022/03/01 05:05:38;;;;;;;51.97;22.65;;;-0.30;99.90;;;;;;5094293;28;20036;-70
2022/03/01 05:08:04;;;;;;;42.88;20.65;;;-0.20;99.90;;;;;;5094913;28;20063;-71
2022/03/01 05:10:30;;;;;;;50.00;21.85;;;-0.20;99.90;;;;;;5094457;28;20036;-71
2022/03/01 05:12:58;;;;;;;53.97;20.10;;;-0.10;99.90;;;;;;5094241;28;20441;-70
2022/03/01 05:15:26;;;;;;;46.58;19.92;;;-0.10;99.90;;;;;;5094150;28;20031;-71
2022/03/01 05:17:53;;;;;;;51.15;21.27;;;-0.10;99.90;;;;;;5094555;28;20013;-71
2022/03/01 05:20:19;;;;;;;55.28;21.05;;;0.00;99.90;;;;;;5094100;28;20028;-71
2022/03/01 05:22:45;;;;;;;42.10;18.90;;;0.00;99.90;;;;;;5094178;28;20047;-70
2022/03/01 05:25:15;;;;;;;51.17;19.23;;;0.00;99.90;;;;;;5094568;28;20464;-70
2022/03/01 05:27:43;;;;;;;49.83;19.70;;;0.00;99.90;;;;;;5093967;28;20043;-70
2022/03/01 05:30:11;;;;;;;44.35;20.33;;;0.00;99.90;;;;;;5093898;28;20027;-71
2022/03/01 05:32:38;;;;;;;48.13;20.00;;;0.00;99.90;;;;;;5094493;28;20381;-70
2022/03/01 05:35:04;;;;;;;41.30;19.23;;;0.00;99.90;;;;;;5093870;28;20365;-70
2022/03/01 05:37:31;;;;;;;43.35;20.25;;;0.00;99.90;;;;;;5094115;28;20039;-70
2022/03/01 05:39:57;;;;;;;52.70;18.80;;;0.00;99.90;;;;;;5093873;28;20031;-70
2022/03/01 05:42:23;;;;;;;44.50;19.48;;;0.00;99.90;;;;;;5093768;28;20077;-70
2022/03/01 05:44:49;;;;;;;38.80;18.60;;;-0.10;99.90;;;;;;5092952;28;20030;-70
2022/03/01 05:47:15;;;;;;;42.97;19.90;;;-0.10;99.90;;;;;;5093776;28;20074;-70
2022/03/01 05:49:41;;;;;;;45.72;18.85;;;-0.10;99.90;;;;;;5093878;28;20032;-70
2022/03/01 05:52:06;;;;;;;40.90;19.30;;;-0.10;99.90;;;;;;5093727;28;20042;-70
2022/03/01 05:54:32;;;;;;;39.03;19.73;;;-0.10;99.90;;;;;;5093651;28;20469;-70
2022/03/01 05:56:57;;;;;;;49.40;18.55;;;-0.10;99.90;;;;;;5093525;28;20020;-70
2022/03/01 05:59:23;;;;;;;53.22;19.92;;;-0.10;99.90;;;;;;5093591;28;20384;-70
2022/03/01 06:01:49;;;;;;;45.30;17.95;;;-0.10;99.90;;;;;;5093598;28;20039;-70
2022/03/01 06:04:14;;;;;;;40.00;18.30;;;-0.10;99.90;;;;;;5093793;28;20020;-70
2022/03/01 06:06:40;;;;;;;38.38;17.63;;;-0.10;99.90;;;;;;5093453;28;20115;-70
2022/03/01 06:09:06;;;;;;;38.53;17.63;;;-0.20;99.90;;;;;;5092185;28;20027;-70
2022/03/01 06:11:32;;;;;;;46.25;19.48;;;-0.20;99.90;;;;;;5093468;28;20065;-70
2022/03/01 06:13:58;;;;;;;40.75;18.83;;;-0.20;99.90;;;;;;5093482;28;20027;-70
2022/03/01 06:16:23;;;;;;;42.92;19.00;;;-0.20;99.90;;;;;;5093454;28;20031;-70
2022/03/01 06:18:49;;;;;;;40.90;17.70;;;-0.20;99.90;;;;;;5093637;28;20064;-70
2022/03/01 06:21:15;;;;;;;46.75;17.95;;;-0.10;99.90;;;;;;5093425;28;20020;-70
2022/03/01 06:23:40;;;;;;;38.90;18.40;;;-0.10;99.90;;;;;;5093415;28;20060;-70
2022/03/01 06:26:07;;;;;;;38.25;16.63;;;-0.10;99.90;;;;;;5093117;28;20032;-70
2022/03/01 06:28:32;;;;;;;40.35;17.75;;;-0.10;99.90;;;;;;5093336;28;20059;-70
2022/03/01 06:30:58;;;;;;;45.47;18.08;;;-0.10;99.90;;;;;;5093445;28;20058;-70
2022/03/01 06:33:24;;;;;;;41.92;17.73;;;-0.10;99.90;;;;;;5093551;28;20028;-70
2022/03/01 06:35:49;;;;;;;38.35;16.38;;;-0.10;99.90;;;;;;5093502;28;20016;-70
2022/03/01 06:38:15;;;;;;;41.70;18.77;;;0.00;99.90;;;;;;5093359;28;20046;-70
2022/03/01 06:40:41;;;;;;;42.05;18.70;;;-0.10;99.90;;;;;;5093198;28;20055;-71
2022/03/01 06:43:06;;;;;;;38.72;18.15;;;-0.10;99.90;;;;;;5093511;28;20450;-70
2022/03/01 06:45:32;;;;;;;41.30;18.50;;;-0.10;99.90;;;;;;5093157;28;20438;-70
2022/03/01 06:47:58;;;;;;;39.22;18.58;;;0.00;99.90;;;;;;5093176;28;20065;-70
2022/03/01 06:50:25;;;;;;;42.03;18.63;;;0.00;99.90;;;;;;5093046;28;20024;-70
2022/03/01 06:52:50;;;;;;;37.30;17.27;;;0.00;99.90;;;;;;5093137;28;20400;-70
2022/03/01 06:55:16;;;;;;;35.70;16.65;;;0.00;99.90;;;;;;5094986;28;20027;-70
2022/03/01 06:57:43;;;;;;;43.22;18.05;;;0.10;99.90;;;;;;5096921;28;20480;-70
2022/03/01 07:00:10;;;;;;;37.65;16.35;;;0.20;99.90;;;;;;5097209;28;20051;-70
2022/03/01 07:02:38;;;;;;;38.53;15.63;;;0.30;99.90;;;;;;5096824;28;20497;-70
2022/03/01 07:05:06;;;;;;;45.22;17.80;;;0.40;99.90;;;;;;5096643;28;20024;-70
2022/03/01 07:07:32;;;;;;;44.78;17.38;;;0.50;99.90;;;;;;5096607;28;20032;-70
2022/03/01 07:09:58;;;;;;;46.08;17.52;;;0.50;99.90;;;;;;5096636;28;20108;-70
2022/03/01 07:12:23;;;;;;;34.30;15.88;;;0.60;99.90;;;;;;5097090;28;20431;-70
2022/03/01 07:14:49;;;;;;;45.15;17.92;;;0.60;99.90;;;;;;5096452;28;20028;-70
2022/03/01 07:17:16;;;;;;;33.88;16.25;;;0.60;99.90;;;;;;5096781;28;20024;-70
2022/03/01 07:19:42;;;;;;;46.15;17.92;;;0.70;99.90;;;;;;5096471;28;20024;-70
2022/03/01 07:22:08;;;;;;;34.55;15.50;;;0.70;99.90;;;;;;5097230;28;20488;-70
2022/03/01 07:24:33;;;;;;;37.10;16.67;;;0.70;99.90;;;;;;5096600;28;20028;-70
2022/03/01 07:26:59;;;;;;;35.33;15.98;;;0.70;99.90;;;;;;5096000;28;20039;-71
2022/03/01 07:29:24;;;;;;;34.80;15.73;;;0.70;99.90;;;;;;5096232;28;20085;-70
2022/03/01 07:31:50;;;;;;;39.70;16.60;;;0.80;99.90;;;;;;5096239;28;20028;-70
2022/03/01 07:34:15;;;;;;;36.78;17.27;;;0.80;99.90;;;;;;5096443;28;20020;-70
2022/03/01 07:36:41;;;;;;;34.38;16.50;;;0.80;99.90;;;;;;5096079;28;20051;-70
2022/03/01 07:39:07;;;;;;;32.67;14.60;;;0.80;99.90;;;;;;5096424;28;20028;-70
2022/03/01 07:41:33;;;;;;;36.05;15.43;;;0.80;99.90;;;;;;5094776;28;20085;-71
2022/03/01 07:43:59;;;;;;;38.15;16.48;;;0.90;99.90;;;;;;5096258;28;20036;-70
2022/03/01 07:46:24;;;;;;;42.70;16.33;;;0.90;99.90;;;;;;5096051;28;20047;-71
2022/03/01 07:48:50;;;;;;;34.55;15.07;;;0.90;99.90;;;;;;5096070;28;20070;-71
2022/03/01 07:51:15;;;;;;;40.20;16.10;;;0.90;99.90;;;;;;5095833;28;20095;-70
2022/03/01 07:53:41;;;;;;;39.78;17.65;;;0.90;99.90;;;;;;5095765;28;20073;-70
2022/03/01 07:56:07;;;;;;;41.30;16.95;;;0.90;99.90;;;;;;5096108;28;20078;-70
2022/03/01 07:58:33;;;;;;;43.72;15.93;;;0.80;99.90;;;;;;5095994;28;20020;-70
2022/03/01 08:00:59;;;;;;;37.13;16.10;;;0.90;99.90;;;;;;5095673;28;20020;-71
2022/03/01 08:03:24;;;;;;;35.28;16.48;;;0.80;99.90;;;;;;5095609;28;20589;-71
2022/03/01 08:05:51;;;;;;;37.45;16.33;;;0.80;99.90;;;;;;5095060;28;20066;-71
2022/03/01 08:08:17;;;;;;;37.28;16.40;;;0.80;99.90;;;;;;5095087;28;20488;-71
2022/03/01 08:10:42;;;;;;;37.30;17.33;;;0.80;99.90;;;;;;5095757;28;20035;-70
2022/03/01 08:13:08;;;;;;;34.92;16.38;;;0.80;99.90;;;;;;5095427;28;20091;-71
2022/03/01 08:15:33;;;;;;;42.53;19.63;;;0.90;99.90;;;;;;5095904;28;20456;-70
2022/03/01 08:17:59;;;;;;;40.65;17.23;;;1.00;99.90;;;;;;5095363;28;20491;-71
2022/03/01 08:20:26;;;;;;;45.35;16.15;;;1.10;99.90;;;;;;5095570;28;20468;-71
2022/03/01 08:22:52;;;;;;;37.20;15.85;;;1.30;99.90;;;;;;5095947;28;20470;-71
2022/03/01 08:25:19;;;;;;;44.40;15.65;;;1.40;99.90;;;;;;5095119;28;20472;-70
2022/03/01 08:27:45;;;;;;;32.38;14.98;;;1.40;99.90;;;;;;5095186;28;20036;-71
2022/03/01 08:30:12;;;;;;;37.30;15.65;;;1.50;99.90;;;;;;5095382;28;20078;-71
2022/03/01 08:32:37;;;;;;;34.60;15.65;;;1.60;99.90;;;;;;5095037;28;20052;-71
2022/03/01 08:35:04;;;;;;;38.20;15.40;;;1.80;99.90;;;;;;5094956;28;20047;-71
2022/03/01 08:37:30;;;;;;;35.22;15.23;;;1.80;99.90;;;;;;5094910;28;20020;-71
2022/03/01 08:39:55;;;;;;;41.80;18.02;;;1.90;99.90;;;;;;5094965;28;20369;-71
2022/03/01 08:42:21;;;;;;;32.72;14.75;;;1.90;99.90;;;;;;5094895;28;20031;-71
2022/03/01 08:44:47;;;;;;;36.85;16.58;;;1.90;99.90;;;;;;5094763;28;20043;-71
2022/03/01 08:47:12;;;;;;;33.28;14.85;;;2.00;99.90;;;;;;5094795;28;20028;-71
2022/03/01 08:49:38;;;;;;;27.17;13.57;;;2.00;99.90;;;;;;5094648;28;20077;-71
2022/03/01 08:52:04;;;;;;;34.58;16.33;;;2.00;99.90;;;;;;5095250;28;20077;-71
2022/03/01 08:54:29;;;;;;;35.83;15.77;;;2.10;99.90;;;;;;5094769;28;20031;-71
2022/03/01 08:56:55;;;;;;;36.20;15.45;;;2.10;99.90;;;;;;5094731;28;20028;-71
2022/03/01 08:59:21;;;;;;;35.72;16.00;;;2.20;99.90;;;;;;5093546;28;20081;-70
2022/03/01 09:01:47;;;;;;;33.35;15.70;;;2.30;99.90;;;;;;5094503;28;20032;-70
2022/03/01 09:04:12;;;;;;;41.75;16.65;;;2.30;99.90;;;;;;5094780;28;20046;-70
2022/03/01 09:06:38;;;;;;;39.67;16.95;;;2.60;99.90;;;;;;5094905;28;20082;-70
2022/03/01 09:09:04;;;;;;;35.95;15.18;;;2.90;99.90;;;;;;5094311;28;20028;-70
2022/03/01 09:11:30;;;;;;;33.47;15.98;;;3.30;99.90;;;;;;5094893;28;20047;-70
2022/03/01 09:13:56;;;;;;;34.38;14.63;;;3.60;99.90;;;;;;5094241;28;20056;-70
2022/03/01 09:16:21;;;;;;;36.35;16.23;;;3.70;99.90;;;;;;5094340;28;20016;-70
2022/03/01 09:18:47;;;;;;;37.38;15.60;;;3.80;99.90;;;;;;5094105;28;20507;-70
2022/03/01 09:21:13;;;;;;;32.03;15.15;;;3.90;99.90;;;;;;5094470;28;20024;-70
2022/03/01 09:23:38;;;;;;;35.60;16.05;;;4.00;99.90;;;;;;5094402;28;20109;-70
2022/03/01 09:26:04;;;;;;;37.40;17.05;;;4.20;99.90;;;;;;5094337;28;20024;-70
2022/03/01 09:28:29;;;;;;;35.40;16.33;;;4.20;99.90;;;;;;5094519;28;20032;-70
2022/03/01 09:30:55;;;;;;;34.85;17.15;;;4.20;99.90;;;;;;5093885;28;20507;-70
2022/03/01 09:33:21;;;;;;;37.88;15.25;;;4.30;99.90;;;;;;5093997;28;20028;-70
2022/03/01 09:35:47;;;;;;;32.47;15.57;;;4.30;99.90;;;;;;5093828;28;20012;-70
2022/03/01 09:38:13;;;;;;;32.78;16.20;;;4.30;99.90;;;;;;5093824;28;20032;-70
2022/03/01 09:40:39;;;;;;;38.25;17.17;;;4.40;99.90;;;;;;5094057;28;20020;-70
2022/03/01 09:43:04;;;;;;;34.28;16.73;;;4.40;99.90;;;;;;5093664;28;20042;-70
2022/03/01 09:45:30;;;;;;;43.17;16.10;;;4.50;99.90;;;;;;5093627;28;20024;-70
2022/03/01 09:47:56;;;;;;;33.45;16.10;;;4.40;99.90;;;;;;5093974;28;20406;-70
2022/03/01 09:50:27;;;;;;;37.97;15.55;;;4.50;99.90;;;;;;5093592;28;20036;-70
2022/03/01 09:52:54;;;;;;;32.30;15.18;;;4.40;99.90;;;;;;5093594;28;20020;-70
2022/03/01 09:55:20;;;;;;;30.77;14.95;;;4.50;99.90;;;;;;5093603;28;20077;-70
2022/03/01 09:57:45;;;;;;;35.03;15.63;;;4.60;99.90;;;;;;5092325;28;20021;-70
2022/03/01 10:00:12;;;;;;;35.88;16.42;;;4.60;99.90;;;;;;5093556;28;20024;-70
2022/03/01 10:02:40;;;;;;;33.35;15.85;;;4.60;99.90;;;;;;5093859;28;20031;-70
2022/03/01 10:05:06;;;;;;;38.33;17.08;;;4.60;99.90;;;;;;5093483;28;20027;-70
2022/03/01 10:07:33;;;;;;;28.33;13.73;;;4.70;99.90;;;;;;5093496;28;20451;-70
2022/03/01 10:10:08;;;;;;;30.58;15.30;;;4.80;99.90;;;;;;5093403;28;20024;-70
2022/03/01 10:12:34;;;;;;;31.50;16.02;;;5.00;99.90;;;;;;5093436;28;20391;-70
2022/03/01 10:15:07;;;;;;;39.78;17.83;;;5.20;99.90;;;;;;5093350;28;20353;-71
2022/03/01 10:17:34;;;;;;;35.17;16.38;;;5.20;99.90;;;;;;5093428;28;20028;-70
2022/03/01 10:20:09;;;;;;;34.40;17.80;;;5.20;99.90;;;;;;5093453;28;20031;-70
2022/03/01 10:22:38;;;;;;;34.47;16.35;;;5.20;99.90;;;;;;5093953;28;20020;-70
2022/03/01 10:25:07;;;;;;;34.97;16.67;;;5.20;99.90;;;;;;5093426;28;20484;-70
2022/03/01 10:27:34;;;;;;;42.40;17.45;;;5.20;99.90;;;;;;5093116;28;20036;-70
2022/03/01 10:30:00;;;;;;;35.55;16.67;;;5.20;99.90;;;;;;5094521;28;20078;-70
2022/03/01 10:32:26;;;;;;;38.50;17.63;;;5.30;99.90;;;;;;5097338;28;20048;-70
2022/03/01 10:35:02;;;;;;;32.78;16.10;;;5.20;99.90;;;;;;5097248;28;20047;-70
2022/03/01 10:37:29;;;;;;;38.15;17.85;;;5.30;99.90;;;;;;5097265;28;20097;-70
2022/03/01 10:40:21;;;;;;;36.17;17.08;;;5.30;99.90;;;;;;5097454;28;20027;-70
2022/03/01 10:43:04;;;;;;;33.67;16.38;;;5.40;99.90;;;;;;5097258;28;20055;-72
2022/03/01 10:45:31;;;;;;;34.75;16.65;;;5.60;99.90;;;;;;5097414;28;20035;-72
2022/03/01 10:47:56;;;;;;;38.05;19.63;;;5.70;99.90;;;;;;5097267;28;20061;-72
2022/03/01 10:50:23;;;;;;;40.83;17.55;;;6.00;99.90;;;;;;5097495;28;20032;-72
2022/03/01 10:52:49;;;;;;;35.47;16.60;;;6.10;99.90;;;;;;5097272;28;20043;-72
2022/03/01 10:55:28;;;;;;;42.58;18.40;;;6.00;99.90;;;;;;5097382;28;20058;-72
2022/03/01 10:58:09;;;;;;;35.47;17.55;;;6.10;99.90;;;;;;5097215;28;20054;-72
2022/03/01 11:00:36;;;;;;;36.65;17.20;;;6.10;99.90;;;;;;5097302;28;20023;-70
2022/03/01 11:03:03;;;;;;;40.42;17.05;;;6.10;99.90;;;;;;5096721;28;20055;-70
2022/03/01 11:05:31;;;;;;;39.17;17.95;;;6.10;99.90;;;;;;5096583;28;20020;-70
2022/03/01 11:08:08;;;;;;;34.83;17.45;;;6.10;99.90;;;;;;5096677;28;20024;-70
2022/03/01 11:10:35;;;;;;;31.70;16.38;;;6.00;99.90;;;;;;5095310;28;20032;-70
2022/03/01 11:13:03;;;;;;;34.75;18.98;;;6.00;99.90;;;;;;5096562;28;20380;-70
2022/03/01 11:15:53;;;;;;;37.78;18.75;;;6.10;99.90;;;;;;5096701;28;20020;-70
2022/03/01 11:18:33;;;;;;;38.92;18.15;;;6.10;99.90;;;;;;5096847;28;20043;-70
2022/03/01 11:21:03;;;;;;;38.55;18.75;;;5.90;99.90;;;;;;5096552;28;20024;-70
2022/03/01 11:23:29;;;;;;;36.70;18.02;;;5.90;99.90;;;;;;5096740;28;20024;-70
2022/03/01 11:25:54;;;;;;;37.03;18.90;;;6.00;99.90;;;;;;5096151;28;20035;-70
2022/03/01 11:28:30;;;;;;;37.83;17.83;;;6.10;99.90;;;;;;5096207;28;20024;-70
2022/03/01 11:30:56;;;;;;;40.03;19.10;;;5.90;99.90;;;;;;5096186;28;20115;-70
2022/03/01 11:33:35;;;;;;;40.22;18.38;;;5.90;99.90;;;;;;5096436;28;20048;-70
2022/03/01 11:36:03;;;;;;;47.60;20.10;;;5.80;99.90;;;;;;5096341;28;20027;-70
2022/03/01 11:38:32;;;;;;;37.75;19.63;;;5.70;99.90;;;;;;5096079;28;20020;-70
2022/03/01 11:41:15;;;;;;;40.17;19.10;;;5.70;99.90;;;;;;5095088;28;20024;-69
2022/03/01 11:43:40;;;;;;;46.78;21.52;;;5.60;99.90;;;;;;5096254;28;20110;-70
2022/03/01 11:46:17;;;;;;;37.80;19.20;;;5.40;99.90;;;;;;5096205;28;20070;-70
2022/03/01 11:48:46;;;;;;;38.03;19.50;;;5.40;99.90;;;;;;5095853;28;20066;-70
2022/03/01 11:51:12;;;;;;;47.78;20.25;;;5.40;99.90;;;;;;5095718;28;20460;-69
2022/03/01 11:53:40;;;;;;;49.15;21.17;;;5.40;99.90;;;;;;5096235;28;20028;-70
2022/03/01 11:56:07;;;;;;;45.92;20.65;;;5.40;99.90;;;;;;5095692;28;20016;-70
2022/03/01 11:58:34;;;;;;;44.05;23.55;;;5.40;99.90;;;;;;5095752;28;20021;-70
2022/03/01 12:01:04;;;;;;;41.40;20.30;;;5.40;99.90;;;;;;5095659;28;20024;-70
2022/03/01 12:03:30;;;;;;;40.08;18.85;;;5.40;99.90;;;;;;5095641;28;20020;-70
2022/03/01 12:05:56;;;;;;;40.30;20.65;;;5.40;99.90;;;;;;5095456;28;20039;-70
2022/03/01 12:08:22;;;;;;;47.67;21.00;;;5.50;99.90;;;;;;5095713;28;20031;-70
2022/03/01 12:10:53;;;;;;;43.83;22.05;;;5.50;99.90;;;;;;5095607;28;20028;-69
2022/03/01 12:13:19;;;;;;;36.17;19.02;;;5.40;99.90;;;;;;5095412;28;20024;-69
2022/03/01 12:15:55;;;;;;;60.97;24.38;;;5.40;99.90;;;;;;5095555;28;20426;-69
2022/03/01 12:18:30;;;;;;;48.67;21.75;;;5.30;99.90;;;;;;5095646;28;20090;-69
2022/03/01 12:21:05;;;;;;;41.90;20.48;;;5.40;99.90;;;;;;5095338;28;20027;-70
2022/03/01 12:23:33;;;;;;;42.45;20.52;;;5.30;99.90;;;;;;5095467;28;20035;-69
2022/03/01 12:26:01;;;;;;;43.40;20.65;;;5.20;99.90;;;;;;5095157;28;20392;-70
2022/03/01 12:28:33;;;;;;;39.75;20.00;;;5.20;99.90;;;;;;5095092;28;20081;-69
2022/03/01 12:31:07;;;;;;;40.45;19.50;;;5.20;99.90;;;;;;5095279;28;20460;-69
2022/03/01 12:33:32;;;;;;;42.33;20.33;;;5.20;99.90;;;;;;5095278;28;20024;-69